• Join FlightAware (Why Join?)
  • Login
  • US Flag 
11:05AM EDT


 

Airport Tracker/Info


-or-


 

Live Flight TrackerFlight Track Log ✈ EJM188 ✈ 15-Aug-2013 ✈ KFWS - KOQU

Flight Track Log - Related Links

Times and Time Zones

All times are in EDT time to prevent confusion due to time zone crossing. See the EJM188 flight status page for this flight to view local times or setup timezone preferences in your user account.

Time Position Orientation Groundspeed Altitude Reporting Facility
EDT Latitude Longitude Course Direction KTS MPH feet Rate Location/Type
08:02PM 32.4833 -97.3167 113° Southeast 216 249 3,000  Level Dallas / Fort Worth TRACON
08:04PM 32.4533 -97.2336 113° Southeast 255 293 7,300 2,940 Climbing Fort Worth Center
08:05PM 32.5094 -97.1572 49° Northeast 240 276 10,600 2,760 Climbing Fort Worth Center
08:06PM 32.5617 -97.0781 52° Northeast 299 344 12,900 2,100 Climbing Fort Worth Center
08:07PM 32.6342 -96.9717 51° Northeast 360 414 14,800 2,100 Climbing Fort Worth Center
08:08PM 32.7028 -96.8778 49° Northeast 401 461 17,200 2,100 Climbing Fort Worth Center
08:09PM 32.7775 -96.7711 50° Northeast 422 486 19,100 2,100 Climbing Fort Worth Center
08:10PM 32.8686 -96.6417 50° Northeast 444 511 21,400 2,160 Climbing Fort Worth Center
08:11PM 32.9556 -96.5172 50° Northeast 466 536 23,500 1,980 Climbing Fort Worth Center
08:12PM 33.0422 -96.3900 51° Northeast 478 550 25,400 1,680 Climbing Fort Worth Center
08:13PM 33.1119 -96.2403 61° Northeast 507 583 26,900 1,440 Climbing Fort Worth Center
08:14PM 33.1622 -96.0658 71° East 520 598 28,300 1,440 Climbing Fort Worth Center
08:15PM 33.2106 -95.9039 70° East 541 623 29,800 1,200 Climbing Fort Worth Center
08:16PM 33.2625 -95.7192 71° East 568 654 30,800 1,020 Climbing Fort Worth Center
08:17PM 33.3161 -95.5367 71° East 580 667 31,900 1,560 Climbing Fort Worth Center
08:18PM 33.3675 -95.3539 71° East 585 673 34,000 1,980 Climbing Fort Worth Center
08:19PM 33.4189 -95.1736 71° East 580 667 35,900 1,920 Climbing Fort Worth Center
08:20PM 33.4739 -94.9956 70° East 575 662 37,900 1,800 Climbing Fort Worth Center
08:21PM 33.5225 -94.8172 72° East 568 654 39,500 1,320 Climbing Fort Worth Center
08:22PM 33.5750 -94.6386 71° East 563 648 40,600 720 Climbing Fort Worth Center
08:23PM 33.6233 -94.4625 72° East 563 648 41,000 180 Climbing Fort Worth Center
08:24PM 33.6753 -94.2861 70° East 563 648 41,000  Level Fort Worth Center
08:25PM 33.7442 -94.1161 64° Northeast 563 648 41,000  Level Fort Worth Center
08:26PM 33.8211 -93.9583 60° Northeast 549 632 41,000  Level Fort Worth Center
08:26PM 33.8800 -93.8450 58° Northeast 558 642 41,000  Level Memphis Center
08:27PM 33.9442 -93.7047 61° Northeast 529 609 41,000  Level Memphis Center
08:28PM 34.0236 -93.5425 59° Northeast 529 609 41,000  Level Memphis Center
08:29PM 34.1094 -93.3700 59° Northeast 529 609 41,000  Level Memphis Center
08:30PM 34.1861 -93.2069 60° Northeast 540 621 41,000  Level Memphis Center
08:31PM 34.2647 -93.0489 59° Northeast 545 627 41,000  Level Memphis Center
08:32PM 34.3411 -92.8903 60° Northeast 540 621 41,000  Level Memphis Center
08:33PM 34.4175 -92.7239 61° Northeast 540 621 41,000  Level Memphis Center
08:34PM 34.4956 -92.5597 60° Northeast 545 627 41,000  Level Memphis Center
08:35PM 34.5736 -92.3953 60° Northeast 551 634 41,000  Level Memphis Center
08:36PM 34.6511 -92.2328 60° Northeast 551 634 41,000  Level Memphis Center
08:37PM 34.7492 -92.0858 51° Northeast 556 640 41,000 -60 Level Memphis Center
08:38PM 34.8511 -91.9489 48° Northeast 551 634 40,900  Descending Memphis Center
08:39PM 34.9592 -91.8192 45° Northeast 544 626 41,000  Climbing Memphis Center
08:40PM 35.0544 -91.6939 47° Northeast 549 632 41,000  Level Memphis Center
08:41PM 35.1603 -91.5611 46° Northeast 549 632 41,000  Level Memphis Center
08:42PM 35.2678 -91.4200 47° Northeast 554 638 41,000  Level Memphis Center
08:43PM 35.3731 -91.2839 46° Northeast 554 638 41,000  Level Memphis Center
08:44PM 35.4806 -91.1475 46° Northeast 554 638 41,000  Level Memphis Center
08:45PM 35.5961 -90.9978 46° Northeast 554 638 41,000  Level Memphis Center
08:46PM 35.6800 -90.8861 47° Northeast 554 638 41,000  Level Memphis Center
08:47PM 35.7889 -90.7333 49° Northeast 548 631 41,000  Level Memphis Center
08:48PM 35.8914 -90.5978 47° Northeast 543 625 41,000  Level Memphis Center
08:49PM 35.9958 -90.4622 46° Northeast 543 625 41,000  Level Memphis Center
08:50PM 36.1003 -90.3211 47° Northeast 543 625 41,000  Level Memphis Center
08:51PM 36.2064 -90.1819 47° Northeast 548 631 41,000  Level Memphis Center
08:52PM 36.3103 -90.0403 48° Northeast 548 631 41,000  Level Memphis Center
08:53PM 36.4119 -89.9006 48° Northeast 543 625 41,000  Level Memphis Center
08:54PM 36.5158 -89.7631 47° Northeast 543 625 41,000  Level Memphis Center
08:55PM 36.6233 -89.6200 47° Northeast 543 625 41,000  Level Memphis Center
08:56PM 36.7244 -89.4767 49° Northeast 543 625 41,000  Level Memphis Center
08:57PM 36.8256 -89.3358 48° Northeast 543 625 41,000  Level Memphis Center
08:58PM 36.9347 -89.1786 49° Northeast 543 625 41,000  Level Memphis Center
08:59PM 37.0353 -89.0367 48° Northeast 543 625 41,000  Level Memphis Center
09:00PM 37.1336 -88.8919 50° Northeast 543 625 41,000  Level Memphis Center
09:01PM 37.2319 -88.7547 48° Northeast 543 625 41,000  Level Memphis Center
09:03PM 37.4525 -88.4275 50° Northeast 542 624 41,000  Level Indianapolis Center
09:05PM 37.5500 -88.2811 50° Northeast 542 624 41,000  Level Indianapolis Center
09:06PM 37.6519 -88.1339 49° Northeast 546 628 41,000  Level Indianapolis Center
09:07PM 37.7514 -87.9881 49° Northeast 542 624 41,000  Level Indianapolis Center
09:08PM 37.8475 -87.8464 49° Northeast 539 620 41,000  Level Indianapolis Center
09:09PM 37.9453 -87.7000 50° Northeast 541 623 41,000  Level Indianapolis Center
09:10PM 38.0417 -87.5558 50° Northeast 535 616 41,000  Level Indianapolis Center
09:11PM 38.1381 -87.4131 49° Northeast 532 612 41,000  Level Indianapolis Center
09:12PM 38.2347 -87.2681 50° Northeast 532 612 41,000  Level Indianapolis Center
09:13PM 38.3336 -87.1169 50° Northeast 536 617 41,000  Level Indianapolis Center
09:14PM 38.4281 -86.9706 50° Northeast 538 619 41,000  Level Indianapolis Center
09:15PM 38.5300 -86.8175 50° Northeast 531 611 41,000  Level Indianapolis Center
09:16PM 38.6250 -86.6719 50° Northeast 529 609 41,000  Level Indianapolis Center
09:17PM 38.7197 -86.5272 50° Northeast 529 609 41,000  Level Indianapolis Center
09:18PM 38.8156 -86.3800 50° Northeast 533 613 41,000  Level Indianapolis Center
09:19PM 38.9161 -86.2214 51° Northeast 529 609 41,000  Level Indianapolis Center
09:20PM 39.0097 -86.0758 50° Northeast 532 612 41,000  Level Indianapolis Center
09:21PM 39.1017 -85.9294 51° Northeast 531 611 41,000  Level Indianapolis Center
09:22PM 39.2128 -85.7544 51° Northeast 531 611 41,000  Level Indianapolis Center
09:23PM 39.3056 -85.6083 51° Northeast 531 611 41,000  Level Indianapolis Center
09:24PM 39.3981 -85.4603 51° Northeast 535 616 41,000  Level Indianapolis Center
09:25PM 39.4892 -85.3139 51° Northeast 531 611 41,000  Level Indianapolis Center
09:26PM 39.5814 -85.1672 51° Northeast 529 609 41,000  Level Indianapolis Center
09:27PM 39.6733 -85.0186 51° Northeast 531 611 41,000  Level Indianapolis Center
09:28PM 39.7800 -84.8442 51° Northeast 537 618 41,000  Level Indianapolis Center
09:29PM 39.8742 -84.6919 51° Northeast 536 617 41,000  Level Indianapolis Center
09:30PM 39.9672 -84.5389 52° Northeast 535 616 41,000  Level Indianapolis Center
09:31PM 40.0631 -84.3858 51° Northeast 539 620 41,000  Level Indianapolis Center
09:32PM 40.1533 -84.2308 53° Northeast 533 613 41,000  Level Indianapolis Center
09:33PM 40.2481 -84.0753 51° Northeast 538 619 41,000  Level Indianapolis Center
09:34PM 40.3417 -83.9186 52° Northeast 539 620 41,000  Level Indianapolis Center
09:35PM 40.4339 -83.7608 52° Northeast 539 620 41,000  Level Indianapolis Center
09:36PM 40.5269 -83.6036 52° Northeast 538 619 41,000  Level Indianapolis Center
09:37PM 40.6189 -83.4464 52° Northeast 537 618 41,000  Level Indianapolis Center
09:38PM 40.7114 -83.2878 52° Northeast 540 621 41,000  Level Indianapolis Center
09:39PM 40.7803 -83.1169 62° Northeast 546 628 41,000  Level Indianapolis Center
09:40PM 40.8278 -82.8939 74° East 538 619 41,000  Level Indianapolis Center
09:41PM 40.8664 -82.6994 75° East 543 625 41,000  Level Indianapolis Center
09:42PM 40.8853 -82.6017 76° East 533 613 41,000  Level Cleveland Center
09:43PM 40.9219 -82.4050 76° East 538 619 41,000  Level Cleveland Center
09:44PM 40.9603 -82.2164 75° East 538 619 41,000  Level Cleveland Center
09:45PM 40.9961 -82.0219 76° East 545 627 41,000  Level Cleveland Center
09:46PM 41.0339 -81.8244 76° East 545 627 41,000  Level Cleveland Center
09:47PM 41.0692 -81.6297 76° East 545 627 41,000  Level Cleveland Center
09:48PM 41.1064 -81.4292 76° East 551 634 41,000  Level Cleveland Center
09:49PM 41.1431 -81.2339 76° East 545 627 41,000  Level Cleveland Center
09:50PM 41.1794 -81.0383 76° East 540 621 41,000  Level Cleveland Center
09:51PM 41.2156 -80.8425 76° East 545 627 41,000  Level Cleveland Center
09:52PM 41.2492 -80.6467 77° East 544 626 41,000  Level Cleveland Center
09:53PM 41.2844 -80.4506 76° East 544 626 41,000  Level Cleveland Center
09:54PM 41.3175 -80.2736 76° East 549 632 41,000  Level Cleveland Center
09:55PM 41.3522 -80.0769 77° East 544 626 41,000  Level Cleveland Center
09:56PM 41.3825 -79.8858 78° East 544 626 41,000  Level Cleveland Center
09:57PM 41.4167 -79.6889 77° East 544 626 41,000  Level Cleveland Center
09:58PM 41.4503 -79.4917 77° East 544 626 41,000  Level Cleveland Center
09:59PM 41.4836 -79.2914 77° East 544 626 41,000  Level Cleveland Center
10:00PM 41.5167 -79.0939 77° East 544 626 41,000  Level Cleveland Center
10:01PM 41.5494 -78.8933 78° East 544 626 41,000  Level Cleveland Center
10:02PM 41.5797 -78.6956 78° East 544 626 41,000  Level Cleveland Center
10:03PM 41.6117 -78.4919 78° East 544 626 41,000  Level Cleveland Center
10:04PM 41.6433 -78.2936 78° East 544 626 41,000  Level Cleveland Center
10:06PM 41.7131 -77.8403 78° East 564 649 41,000  Level New York Center
10:07PM 41.7417 -77.6347 79° East 559 643 41,000  Level New York Center
10:08PM 41.7697 -77.4344 79° East 559 643 41,000  Level New York Center
10:09PM 41.8019 -77.2292 78° East 559 643 41,000  Level New York Center
10:10PM 41.8317 -77.0258 79° East 559 643 41,000  Level New York Center
10:11PM 41.8608 -76.8225 79° East 559 643 41,000  Level New York Center
10:12PM 41.8897 -76.6189 79° East 559 643 41,000  Level New York Center
10:14PM 41.9364 -76.3003 79° East 577 664 41,000  Level Boston Center
10:15PM 41.9642 -76.0925 80° East 577 664 41,000  Level Boston Center
10:16PM 41.9914 -75.8872 80° East 572 658 41,000  Level Boston Center
10:17PM 42.0183 -75.6819 80° East 560 644 41,000  Level Boston Center
10:18PM 42.0428 -75.4764 81° East 560 644 41,000  Level Boston Center
10:19PM 42.0692 -75.2706 80° East 560 644 41,000 -780 Level Boston Center
10:20PM 42.0883 -75.0756 82° East 552 635 39,500 -2,100 Descending Boston Center
10:21PM 42.1078 -74.8664 83° East 547 629 36,800 -3,120 Descending Boston Center
10:22PM 42.1283 -74.6683 82° East 541 623 33,400 -3,240 Descending Boston Center
10:23PM 42.1467 -74.4703 83° East 536 617 30,400 -2,220 Descending Boston Center
10:24PM 42.1664 -74.2889 82° East 542 624 29,000 -1,080 Descending Boston Center
10:25PM 42.1842 -74.0875 83° East 542 624 28,300 -1,380 Descending Boston Center
10:26PM 42.2036 -73.8947 82° East 536 617 26,300 -2,040 Descending Boston Center
10:27PM 42.2267 -73.6933 81° East 531 611 24,300 -2,400 Descending Boston Center
10:28PM 42.2411 -73.5058 84° East 526 605 21,600 -2,340 Descending Boston Center
10:29PM 42.2575 -73.3125 83° East 493 567 19,600 -1,320 Descending Boston Center
10:30PM 42.2606 -73.1694 88° East 460 529 19,000 -300 Descending Boston Center
10:31PM 42.1800 -73.0117 125° Southeast 441 507 19,000  Level Boston Center
10:32PM 42.1014 -72.9044 135° Southeast 446 513 19,000  Level Boston Center
10:33PM 41.9997 -72.7725 136° Southeast 452 520 19,000 -540 Level Boston Center
10:34PM 41.9147 -72.6467 132° Southeast 457 526 18,000 -900 Descending Boston Center
10:35PM 41.8503 -72.5236 125° Southeast 457 526 17,300 -2,160 Descending Boston Center
10:36PM 41.7711 -72.3844 127° Southeast 434 499 13,800 -3,060 Descending Boston Center
10:37PM 41.7125 -72.2733 125° Southeast 415 478 11,100 -1,380 Descending Boston Center
10:38PM 41.6769 -72.1344 109° East 370 426 11,100 -360 Level Boston Center
10:39PM 41.6806 -72.0064 88° East 348 400 10,400 -1,860 Descending Boston Center
10:40PM 41.6822 -71.8981 89° East 312 359 7,500 -3,360 Descending Boston Center
10:41PM 41.6836 -71.7953 89° East 272 313 3,800 -2,400 Descending Boston Center
10:42PM 41.6872 -71.6922 87° East 267 307 2,800 -960 Descending Boston Center
10:42PM 41.6850 -71.6533 94° East 273 314 2,400 -840 Descending Boston Center
10:43PM 41.6886 -71.5950 85° East 267 307 2,000 -420 Descending Boston Center
10:43PM 41.6864 -71.5561 94° East 219 252 2,000 60 Level Boston Center
10:44PM 41.6881 -71.5256 86° East 235 270 2,100 -300 Climbing Boston Center
10:44PM 41.6711 -71.4869 120° Southeast 177 204 1,700 -840 Descending Boston Center
10:45PM 41.6564 -71.4703 140° Southeast 171 197 1,300 -840 Descending Boston Center
10:45PM 41.6417 -71.4567 145° Southeast 129 148 900 -780 Descending Boston Center
10:46PM 41.6228 -71.4375 143° Southeast 130 150 400 10,620 Descending Boston Center
10:47PM 41.5956 -71.4131 146° Southeast 120 138 19,000 9,420 Climbing Boston Center
10:48PM 41.5703 -71.3939 150° Southeast 120 138 19,000  Level Boston Center
10:49PM 41.5431 -71.3722 149° Southeast 120 138 19,000  Level Boston Center
10:50PM 41.5178 -71.3533 151° Southeast 120 138 19,000  Level Boston Center
10:52PM 41.5971 -71.4121 331° Northwest  Level Estimated